createdAt,value
2022-12-25T06:32:22.840Z,7.32
2022-12-25T06:33:25.523Z,7.27
2022-12-25T06:34:24.658Z,7.31
2022-12-25T06:35:24.033Z,7.32
2022-12-25T06:36:24.260Z,7.32
2022-12-25T06:37:23.834Z,7.34
2022-12-25T06:38:23.855Z,7.35
2022-12-25T06:39:23.801Z,7.35
2022-12-25T06:40:23.808Z,7.32
2022-12-25T06:41:23.778Z,7.34
2022-12-25T06:42:23.822Z,7.34
2022-12-25T06:43:23.739Z,7.35
2022-12-25T06:44:23.870Z,7.38
2022-12-25T06:45:23.743Z,7.38
2022-12-25T06:46:23.817Z,7.38
2022-12-25T06:47:23.709Z,7.41
2022-12-25T06:48:23.695Z,7.41
2022-12-25T06:49:23.678Z,7.41
2022-12-25T06:50:23.684Z,7.42
2022-12-25T06:51:23.647Z,7.41
2022-12-25T06:52:23.659Z,7.44
2022-12-25T06:53:23.665Z,7.44
2022-12-25T06:54:23.641Z,7.44
2022-12-25T06:55:23.628Z,7.42
2022-12-25T06:56:23.632Z,7.44
2022-12-25T06:57:23.596Z,7.44
2022-12-25T06:58:23.602Z,7.45
2022-12-25T06:59:23.602Z,7.47
2022-12-25T07:00:23.567Z,7.49
2022-12-25T07:01:23.822Z,7.49
2022-12-25T07:02:23.829Z,7.49
2022-12-25T07:03:23.548Z,7.45
2022-12-25T07:04:23.516Z,7.47
2022-12-25T07:05:23.619Z,7.44
2022-12-25T07:06:23.474Z,7.42
2022-12-25T07:07:23.425Z,7.44
2022-12-25T07:08:23.424Z,7.44
2022-12-25T07:09:23.476Z,7.41
2022-12-25T07:10:23.463Z,7.41
2022-12-25T07:11:23.440Z,7.41
2022-12-25T07:12:23.445Z,7.40
2022-12-25T07:13:23.409Z,7.38
2022-12-25T07:14:25.993Z,7.37
2022-12-25T07:15:23.347Z,7.38
2022-12-25T07:16:23.409Z,7.38
2022-12-25T07:17:23.364Z,7.38
2022-12-25T07:18:23.317Z,7.42
2022-12-25T07:19:23.312Z,7.38
2022-12-25T07:20:23.326Z,7.38
2022-12-25T07:21:23.301Z,7.38
2022-12-25T07:22:23.271Z,7.37
2022-12-25T07:23:23.287Z,7.37
2022-12-25T07:24:23.257Z,7.38
2022-12-25T07:25:23.253Z,7.38
2022-12-25T07:26:23.248Z,7.38
2022-12-25T07:27:23.234Z,7.34
2022-12-25T07:28:23.352Z,7.37
2022-12-25T07:29:23.227Z,7.34
2022-12-25T07:30:23.194Z,7.34
2022-12-25T07:31:23.210Z,7.35
2022-12-25T07:32:23.173Z,7.34
2022-12-25T07:33:23.193Z,7.35
2022-12-25T07:34:23.156Z,7.40
2022-12-25T07:35:23.167Z,7.42
2022-12-25T07:36:23.144Z,7.42
2022-12-25T07:37:23.127Z,7.44
2022-12-25T07:38:23.172Z,7.42
2022-12-25T07:39:23.119Z,7.45
2022-12-25T07:40:23.095Z,7.45
2022-12-25T07:41:23.109Z,7.47
2022-12-25T07:42:25.300Z,7.47
2022-12-25T07:43:23.078Z,7.49
2022-12-25T07:44:23.060Z,7.47
2022-12-25T07:45:23.047Z,7.50
2022-12-25T07:46:23.227Z,7.50
2022-12-25T07:47:23.030Z,7.49
2022-12-25T07:48:23.014Z,7.49
2022-12-25T07:49:23.044Z,7.50
2022-12-25T07:50:22.978Z,7.45
2022-12-25T07:51:23.089Z,7.49
2022-12-25T07:52:22.983Z,7.47
2022-12-25T07:53:23.028Z,7.45
2022-12-25T08:27:56.238Z,8.12
2022-12-25T08:28:56.981Z,8.14
2022-12-25T08:29:56.980Z,8.12
2022-12-25T08:30:57.023Z,8.14
2022-12-25T08:31:56.970Z,8.14
2022-12-25T08:32:56.991Z,8.11
2022-12-25T08:33:56.967Z,8.08
2022-12-25T08:34:56.912Z,8.08
2022-12-25T08:35:56.944Z,8.07
2022-12-25T08:36:56.933Z,8.03
2022-12-25T08:37:56.911Z,8.04
2022-12-25T08:39:02.788Z,8.04
2022-12-25T08:39:57.039Z,8.02
2022-12-25T08:40:56.948Z,8.00
2022-12-25T08:41:56.906Z,8.00
2022-12-25T08:42:56.841Z,8.00
2022-12-25T08:43:56.852Z,7.97
2022-12-25T08:44:56.825Z,8.00
2022-12-25T08:45:56.899Z,7.94
2022-12-25T08:46:56.791Z,7.94
2022-12-25T08:47:56.777Z,7.90
2022-12-25T08:48:56.821Z,7.93
2022-12-25T08:49:56.742Z,7.87
2022-12-25T08:50:56.771Z,7.85
2022-12-25T08:51:56.756Z,7.87
2022-12-25T08:52:56.728Z,7.85
2022-12-25T08:53:56.724Z,7.85
2022-12-25T08:54:56.713Z,7.79
2022-12-25T08:55:56.718Z,7.79
2022-12-25T08:57:02.458Z,7.75
2022-12-25T08:57:56.680Z,7.74
2022-12-25T08:58:56.665Z,7.72
2022-12-25T08:59:56.666Z,7.72
2022-12-25T09:00:56.717Z,7.69
2022-12-25T09:01:56.849Z,7.71
2022-12-25T09:02:56.704Z,7.66
2022-12-25T09:05:19.181Z,7.69
2022-12-25T09:06:20.126Z,7.67
2022-12-25T09:07:20.130Z,7.67
2022-12-25T09:08:20.195Z,7.67
2022-12-25T09:09:20.064Z,7.71
2022-12-25T09:10:20.072Z,7.69
2022-12-25T09:11:20.116Z,7.63
2022-12-25T09:12:20.118Z,7.67
2022-12-25T09:13:20.075Z,7.62
2022-12-25T09:14:20.064Z,7.62
2022-12-25T09:15:20.587Z,7.62
2022-12-25T09:16:20.172Z,7.63
2022-12-25T09:17:20.035Z,7.62
2022-12-25T09:18:20.028Z,7.62
2022-12-25T09:19:20.018Z,7.63
2022-12-25T09:20:20.023Z,7.63
2022-12-25T09:21:20.021Z,7.66
2022-12-25T09:22:19.975Z,7.66
2022-12-25T09:23:19.967Z,7.69
2022-12-25T09:24:19.975Z,7.69
2022-12-25T09:25:19.891Z,7.72
2022-12-25T09:26:19.904Z,7.71
2022-12-25T09:27:19.900Z,7.71
2022-12-25T09:28:19.895Z,7.74
2022-12-25T10:56:42.686Z,8.32
2022-12-25T10:57:43.586Z,8.30
2022-12-25T10:58:43.577Z,8.30
2022-12-25T10:59:43.607Z,8.33
2022-12-25T11:00:43.519Z,8.32
2022-12-25T11:01:43.589Z,8.30
2022-12-25T11:02:43.981Z,8.30
2022-12-25T11:03:43.548Z,8.29
2022-12-25T11:04:43.461Z,8.35
2022-12-25T11:05:43.472Z,8.32
2022-12-25T11:06:43.471Z,8.30
2022-12-25T11:07:43.416Z,8.32
2022-12-25T11:08:43.424Z,8.30
2022-12-25T11:09:43.404Z,8.28
2022-12-25T11:10:43.409Z,8.28
2022-12-25T11:11:43.388Z,8.25
2022-12-25T11:12:43.383Z,8.22
2022-12-25T11:13:43.360Z,8.22
2022-12-25T11:14:43.363Z,8.22
2022-12-25T11:15:43.442Z,8.22
2022-12-25T11:16:43.550Z,8.21
2022-12-25T11:17:43.408Z,8.22
2022-12-25T11:18:43.376Z,8.20
2022-12-25T11:19:44.432Z,8.21
2022-12-25T11:20:47.085Z,8.20
2022-12-25T11:21:43.336Z,8.18
2022-12-25T11:22:43.266Z,8.20
2022-12-25T11:23:43.295Z,8.18
2022-12-25T11:24:43.253Z,8.21
2022-12-25T11:25:43.234Z,8.22
2022-12-25T11:26:43.225Z,8.20
2022-12-25T11:27:43.252Z,8.25
2022-12-25T11:28:43.207Z,8.21
2022-12-25T11:29:43.197Z,8.22
2022-12-25T11:30:43.611Z,8.21
2022-12-25T11:35:34.447Z,8.25
2022-12-25T11:36:35.268Z,8.25
2022-12-25T11:37:35.367Z,8.25
2022-12-25T11:38:35.235Z,8.25
2022-12-25T11:39:35.219Z,8.25
2022-12-25T11:40:35.233Z,8.25
2022-12-25T11:41:35.224Z,8.22
2022-12-25T11:42:35.178Z,8.28
2022-12-25T11:43:35.227Z,8.28
2022-12-25T11:44:35.189Z,8.25
2022-12-25T11:45:35.177Z,8.26
2022-12-25T11:46:35.238Z,8.29
2022-12-25T11:47:35.453Z,8.29
2022-12-25T12:01:15.515Z,8.26
2022-12-25T12:02:04.126Z,8.28
2022-12-25T12:03:04.078Z,8.29
2022-12-25T12:04:04.088Z,8.28
2022-12-25T12:05:03.937Z,8.30
2022-12-25T12:06:03.905Z,8.29
2022-12-25T12:07:03.975Z,8.32
2022-12-25T12:08:04.341Z,8.33
2022-12-25T12:09:03.900Z,8.33
2022-12-25T12:10:03.868Z,8.35
2022-12-25T12:11:03.915Z,8.36
2022-12-25T12:12:03.874Z,8.36
2022-12-25T12:13:03.859Z,8.36
2022-12-25T12:14:03.908Z,8.36
2022-12-25T12:15:04.057Z,8.35
2022-12-25T12:16:03.863Z,8.40
2022-12-25T12:17:03.826Z,8.39
2022-12-25T12:18:03.929Z,8.36
2022-12-25T12:19:03.792Z,8.39
2022-12-25T12:20:03.844Z,8.37
2022-12-25T12:21:03.754Z,8.36
2022-12-25T12:22:03.900Z,8.35
2022-12-25T12:23:03.760Z,8.37
2022-12-25T12:24:03.722Z,8.36
2022-12-25T12:25:03.732Z,8.32
2022-12-25T12:26:03.700Z,8.36
2022-12-25T12:27:03.700Z,8.35
2022-12-25T12:28:05.857Z,8.36
2022-12-25T12:29:03.695Z,8.35
2022-12-25T12:30:03.725Z,8.35
2022-12-25T12:31:03.677Z,8.35
2022-12-25T12:32:03.724Z,8.33
2022-12-25T12:33:03.689Z,8.32
2022-12-25T12:34:03.604Z,8.33
2022-12-25T12:35:03.637Z,8.32
2022-12-25T12:36:03.614Z,8.33
2022-12-25T12:37:03.592Z,8.33
2022-12-25T12:38:03.609Z,8.32
2022-12-25T12:39:03.593Z,8.35
2022-12-25T12:40:03.564Z,8.33
2022-12-25T12:41:03.587Z,8.32
2022-12-25T12:42:03.543Z,8.35
2022-12-25T12:43:03.573Z,8.36
2022-12-25T12:44:03.546Z,8.35
2022-12-25T12:45:03.561Z,8.33
2022-12-25T12:46:03.589Z,8.35
2022-12-25T12:47:03.542Z,8.28
2022-12-25T12:48:03.486Z,8.33
2022-12-25T12:49:03.540Z,8.32
2022-12-25T12:50:03.459Z,8.29
2022-12-25T12:51:03.462Z,8.29
2022-12-25T12:52:03.461Z,8.30
2022-12-25T12:53:03.453Z,8.32
2022-12-25T12:54:03.408Z,8.29
2022-12-25T12:55:03.448Z,8.33
2022-12-25T12:56:03.410Z,8.33
2022-12-25T12:57:03.392Z,8.33
2022-12-25T12:58:03.387Z,8.33
2022-12-25T12:59:03.382Z,8.33
2022-12-25T13:00:10.421Z,8.32
2022-12-25T13:01:03.447Z,8.32
2022-12-25T13:02:03.643Z,8.30
2022-12-25T13:03:03.467Z,8.32
2022-12-25T13:04:03.294Z,8.32
2022-12-25T13:05:03.344Z,8.29
2022-12-25T13:06:03.333Z,8.33
2022-12-25T13:07:03.285Z,8.32
2022-12-25T13:08:03.282Z,8.32
2022-12-25T13:09:03.275Z,8.29
2022-12-25T13:10:03.264Z,8.30
2022-12-25T13:11:03.254Z,8.29
2022-12-25T13:12:03.242Z,8.30
2022-12-25T13:13:03.238Z,8.28
2022-12-25T13:14:03.216Z,8.30
2022-12-25T13:15:03.205Z,8.32
2022-12-25T13:16:03.257Z,8.33
2022-12-25T13:17:03.220Z,8.32
2022-12-25T13:18:03.164Z,8.30
2022-12-25T13:19:03.167Z,8.32
2022-12-25T13:20:03.146Z,8.29
2022-12-25T13:21:03.150Z,8.29
2022-12-25T13:22:03.152Z,8.28
2022-12-25T13:23:03.115Z,8.28
2022-12-25T13:24:03.102Z,8.30
2022-12-25T13:25:03.095Z,8.32
2022-12-25T13:26:03.085Z,8.32
2022-12-25T13:27:03.085Z,8.30
2022-12-25T13:28:03.080Z,8.35
2022-12-25T13:29:09.490Z,8.30
2022-12-25T13:30:03.082Z,8.30
2022-12-25T13:31:03.060Z,8.33
2022-12-25T13:32:03.077Z,8.35
2022-12-25T13:33:03.049Z,8.36
2022-12-25T13:34:03.047Z,8.36
2022-12-25T13:35:03.003Z,8.37
2022-12-25T13:36:02.993Z,8.40
2022-12-25T13:37:02.970Z,8.42
2022-12-25T13:38:02.969Z,8.40
2022-12-25T13:39:02.973Z,8.40
2022-12-25T13:40:02.934Z,8.40
2022-12-25T13:41:02.942Z,8.44
2022-12-25T13:42:02.900Z,8.47
2022-12-25T13:43:02.909Z,8.48
2022-12-25T13:44:02.913Z,8.45
2022-12-25T13:45:02.893Z,8.45
2022-12-25T13:46:02.966Z,8.45
2022-12-25T13:47:02.878Z,8.45
2022-12-25T13:48:02.867Z,8.45
2022-12-25T13:49:02.846Z,8.45
2022-12-25T13:50:02.830Z,8.47
2022-12-25T13:51:02.842Z,8.44
2022-12-25T13:52:02.830Z,8.40
2022-12-25T13:53:02.820Z,8.39
2022-12-25T13:54:02.782Z,8.40
2022-12-25T13:55:02.801Z,8.39
2022-12-25T13:56:02.780Z,8.39
2022-12-25T13:57:02.769Z,8.37
2022-12-25T13:58:02.728Z,8.37
2022-12-25T13:59:02.748Z,8.37
2022-12-25T14:00:02.751Z,8.37
2022-12-25T14:01:02.786Z,8.35
2022-12-25T14:02:02.890Z,8.35
2022-12-25T14:03:02.773Z,8.35
2022-12-25T14:04:02.672Z,8.35
2022-12-25T14:05:02.693Z,8.33
2022-12-25T14:06:02.658Z,8.35
2022-12-25T14:07:02.650Z,8.33
2022-12-25T14:08:02.675Z,8.35
2022-12-25T14:09:02.631Z,8.33
2022-12-25T14:10:02.665Z,8.30
2022-12-25T14:11:02.622Z,8.30
2022-12-25T14:12:02.623Z,8.30
2022-12-25T14:13:02.589Z,8.33
2022-12-25T14:14:02.606Z,8.32
2022-12-25T14:15:02.588Z,8.33
2022-12-25T14:16:02.557Z,8.36
2022-12-25T14:17:02.610Z,8.33
2022-12-25T14:18:02.549Z,8.36
2022-12-25T14:19:02.556Z,8.33
2022-12-25T14:20:08.312Z,8.37
2022-12-25T14:21:02.573Z,8.39
2022-12-25T14:22:02.487Z,8.39
2022-12-25T14:23:02.481Z,8.37
2022-12-25T14:24:02.483Z,8.36
2022-12-25T14:25:02.460Z,8.37
2022-12-25T14:26:02.492Z,8.40
2022-12-25T14:27:02.441Z,8.36
2022-12-25T14:28:02.430Z,8.36
2022-12-25T14:29:02.423Z,8.35
2022-12-25T14:30:02.425Z,8.36
2022-12-25T14:31:02.522Z,8.37
2022-12-25T14:32:02.414Z,8.39
2022-12-25T14:33:02.370Z,8.37
2022-12-25T14:34:02.376Z,8.36
2022-12-25T14:35:02.380Z,8.36
2022-12-25T14:36:02.350Z,8.36
2022-12-25T14:37:02.360Z,8.35
2022-12-25T14:38:02.355Z,8.39
2022-12-25T14:39:02.306Z,8.37
2022-12-25T14:40:02.313Z,8.36
2022-12-25T14:41:02.310Z,8.36
2022-12-25T14:42:02.299Z,8.37
2022-12-25T14:43:02.311Z,8.36
2022-12-25T14:44:02.294Z,8.37
2022-12-25T14:45:02.292Z,8.35
2022-12-25T14:46:02.341Z,8.35
2022-12-25T14:47:02.232Z,8.36
2022-12-25T14:48:02.226Z,8.39
2022-12-25T14:49:02.213Z,8.36
2022-12-25T14:50:02.209Z,8.33
2022-12-25T14:51:02.195Z,8.35
2022-12-25T14:52:02.175Z,8.33
2022-12-25T14:53:02.159Z,8.33
2022-12-25T14:54:02.163Z,8.32
2022-12-25T14:55:02.179Z,8.35
2022-12-25T14:56:02.151Z,8.33
2022-12-25T14:57:02.150Z,8.33
2022-12-25T14:58:02.116Z,8.35
2022-12-25T14:59:02.130Z,8.33
2022-12-25T15:00:02.138Z,8.33
2022-12-25T15:01:02.136Z,8.30
2022-12-25T15:02:02.271Z,8.33
2022-12-25T15:03:02.132Z,8.36
2022-12-25T15:04:02.215Z,8.32
2022-12-25T15:05:02.054Z,8.32
2022-12-25T15:06:02.072Z,8.33
2022-12-25T15:07:02.038Z,8.30
2022-12-25T15:08:02.017Z,8.29
2022-12-25T15:09:02.014Z,8.28
2022-12-25T15:10:47.120Z,8.29
2022-12-25T15:11:03.854Z,8.26
2022-12-25T15:12:01.988Z,8.28
2022-12-25T15:13:01.961Z,8.29
2022-12-25T15:14:01.962Z,8.30
2022-12-25T15:15:01.964Z,8.29
2022-12-25T15:16:02.019Z,8.29
2022-12-25T15:17:01.903Z,8.30
2022-12-25T15:18:01.897Z,8.35
2022-12-25T15:19:01.917Z,8.32
2022-12-25T15:20:02.022Z,8.29
2022-12-25T15:21:01.870Z,8.33
2022-12-25T15:22:01.886Z,8.29
2022-12-25T15:23:19.276Z,8.30
2022-12-25T15:24:01.859Z,8.32
2022-12-25T15:25:02.843Z,8.29
2022-12-25T15:26:01.870Z,8.29
2022-12-25T15:27:01.842Z,8.29
2022-12-25T15:28:01.839Z,8.30
2022-12-25T15:29:01.771Z,8.30
2022-12-25T15:30:10.644Z,8.30
2022-12-25T15:31:01.831Z,8.30
2022-12-25T15:32:01.762Z,8.30
2022-12-25T15:33:01.743Z,8.28
2022-12-25T15:34:01.756Z,8.26
2022-12-25T15:35:01.727Z,8.28
2022-12-25T15:36:01.737Z,8.30
2022-12-25T15:37:01.714Z,8.29
2022-12-25T15:38:01.714Z,8.26
2022-12-25T15:39:01.708Z,8.25
2022-12-25T15:40:02.324Z,8.26
2022-12-25T15:41:01.666Z,8.29
2022-12-25T15:42:01.685Z,8.29
2022-12-25T15:43:06.436Z,8.29
2022-12-25T15:44:01.683Z,8.26
2022-12-25T15:45:01.607Z,8.28
2022-12-25T15:46:01.665Z,8.28
2022-12-25T15:47:01.625Z,8.28
2022-12-25T15:48:01.665Z,8.29
2022-12-25T15:49:01.693Z,8.29
2022-12-25T15:50:01.831Z,8.30
2022-12-25T15:51:01.629Z,8.29
2022-12-25T15:52:01.632Z,8.30
2022-12-25T15:53:01.596Z,8.29
2022-12-25T15:54:01.619Z,8.29
2022-12-25T15:55:01.553Z,8.29
2022-12-25T15:56:01.588Z,8.26
2022-12-25T15:57:01.557Z,8.26
2022-12-25T15:58:01.552Z,8.26
2022-12-25T15:59:01.537Z,8.29
2022-12-25T16:00:01.722Z,8.28
2022-12-25T16:01:01.504Z,8.25
2022-12-25T16:02:01.674Z,8.22
2022-12-25T16:03:01.682Z,8.22
2022-12-25T16:04:01.492Z,8.20
2022-12-25T16:05:06.888Z,8.22
2022-12-25T16:06:01.465Z,8.21
2022-12-25T16:07:01.466Z,8.22
2022-12-25T16:08:01.456Z,8.25
2022-12-25T16:09:01.440Z,8.26
2022-12-25T16:10:01.522Z,8.21
2022-12-25T16:11:01.416Z,8.28
2022-12-25T16:12:01.397Z,8.25
2022-12-25T16:13:01.379Z,8.26
2022-12-25T16:14:01.378Z,8.26
2022-12-25T16:15:01.357Z,8.25
2022-12-25T16:16:01.432Z,8.25
2022-12-25T16:17:01.364Z,8.28
2022-12-25T16:18:01.328Z,8.30
2022-12-25T16:19:01.325Z,8.29
2022-12-25T16:20:01.314Z,8.30
2022-12-25T16:21:01.326Z,8.29
2022-12-25T16:22:01.301Z,8.29
2022-12-25T16:23:01.275Z,8.29
2022-12-25T16:24:01.281Z,8.32
2022-12-25T16:25:01.263Z,8.30
2022-12-25T16:26:01.246Z,8.30
2022-12-25T16:27:01.236Z,8.32
2022-12-25T16:28:01.228Z,8.32
2022-12-25T16:29:06.804Z,8.29
2022-12-25T16:30:01.233Z,8.30
2022-12-25T16:31:01.269Z,8.29
2022-12-25T16:32:01.179Z,8.26
2022-12-25T16:33:01.230Z,8.26
2022-12-25T16:34:01.208Z,8.25
2022-12-25T16:35:01.166Z,8.26
2022-12-25T16:36:01.148Z,8.26
2022-12-25T16:37:01.166Z,8.26
2022-12-25T16:38:12.289Z,8.22
2022-12-25T16:39:01.135Z,8.26
2022-12-25T16:40:01.156Z,8.28
2022-12-25T16:41:01.264Z,8.26
2022-12-25T16:42:01.592Z,8.28
2022-12-25T16:43:01.105Z,8.26
2022-12-25T16:44:01.273Z,8.28
2022-12-25T16:45:01.052Z,8.29
2022-12-25T16:46:01.285Z,8.29
2022-12-25T16:47:10.552Z,8.32
2022-12-25T16:48:01.016Z,8.32
2022-12-25T16:49:01.017Z,8.35
2022-12-25T16:50:01.015Z,8.35
2022-12-25T16:51:00.967Z,8.33
2022-12-25T16:52:00.986Z,8.30
2022-12-25T16:53:00.951Z,8.32
2022-12-25T16:54:00.987Z,8.32
2022-12-25T16:55:00.971Z,8.32
2022-12-25T16:56:00.994Z,8.29
2022-12-25T16:57:00.911Z,8.28
2022-12-25T16:58:00.930Z,8.30
2022-12-25T16:59:00.899Z,8.29
2022-12-25T17:00:00.915Z,8.30
2022-12-25T17:01:00.872Z,8.28
2022-12-25T17:02:01.000Z,8.29
2022-12-25T17:03:01.238Z,8.30
2022-12-25T17:04:00.954Z,8.29
2022-12-25T17:05:00.855Z,8.26
2022-12-25T17:06:00.825Z,8.28
2022-12-25T17:07:00.809Z,8.29
2022-12-25T17:08:00.815Z,8.29
2022-12-25T17:09:00.799Z,8.29
2022-12-25T17:10:00.810Z,8.30
2022-12-25T17:11:00.777Z,8.28
2022-12-25T17:12:00.788Z,8.29
2022-12-25T17:13:00.766Z,8.28
2022-12-25T17:14:00.746Z,8.30
2022-12-25T17:15:00.882Z,8.29
2022-12-25T17:16:00.785Z,8.28
2022-12-25T17:17:00.717Z,8.29
2022-12-25T17:18:00.734Z,8.29
2022-12-25T17:19:00.747Z,8.28
2022-12-25T17:20:00.696Z,8.30
2022-12-25T17:21:00.669Z,8.29
2022-12-25T17:22:00.673Z,8.30
2022-12-25T17:23:00.675Z,8.30
2022-12-25T17:24:03.573Z,8.32
2022-12-25T17:25:00.674Z,8.32
2022-12-25T17:26:00.681Z,8.30
2022-12-25T17:27:00.636Z,8.36
2022-12-25T17:28:00.587Z,8.33
2022-12-25T17:29:00.636Z,8.35
2022-12-25T17:30:00.588Z,8.37
2022-12-25T17:31:00.625Z,8.36
2022-12-25T17:32:00.695Z,8.39
2022-12-25T17:33:00.540Z,8.45
2022-12-25T17:34:00.551Z,8.45
2022-12-25T17:35:00.583Z,8.53
2022-12-25T17:36:03.880Z,8.53
2022-12-25T17:37:00.623Z,8.53
2022-12-25T17:38:00.514Z,8.55
2022-12-25T17:39:00.470Z,8.58
2022-12-25T17:40:00.493Z,8.62
2022-12-25T17:41:00.444Z,8.62
2022-12-25T17:42:00.475Z,8.65
2022-12-25T17:43:00.455Z,8.63
2022-12-25T17:44:00.435Z,8.63
2022-12-25T17:45:00.409Z,8.63
2022-12-25T17:46:00.420Z,8.63
2022-12-25T17:47:00.537Z,8.68
2022-12-25T17:48:00.398Z,8.62
2022-12-25T17:49:00.371Z,8.63
2022-12-25T17:50:00.912Z,8.62
2022-12-25T17:52:50.888Z,8.68
2022-12-25T17:53:51.980Z,8.68
2022-12-25T17:54:52.008Z,8.71
2022-12-25T17:55:51.846Z,8.69
2022-12-25T17:56:51.812Z,8.72
2022-12-25T17:57:51.827Z,8.72
2022-12-25T17:58:51.796Z,8.73
2022-12-25T17:59:51.802Z,8.76
2022-12-25T18:00:51.784Z,8.75
2022-12-25T18:01:51.891Z,8.76
2022-12-25T18:02:51.840Z,8.73
2022-12-25T18:03:51.856Z,8.76
2022-12-25T18:04:51.759Z,8.76
2022-12-25T18:05:51.731Z,8.79
2022-12-25T18:06:51.700Z,8.79
2022-12-25T18:07:51.712Z,8.78
2022-12-25T18:08:51.764Z,8.78
2022-12-25T18:09:51.698Z,8.75
2022-12-25T18:10:51.744Z,8.75
2022-12-25T18:11:51.672Z,8.75
2022-12-25T18:12:51.657Z,8.78
2022-12-25T18:13:51.658Z,8.78
2022-12-25T18:14:51.639Z,8.75
2022-12-25T18:15:51.758Z,8.78
2022-12-25T18:16:51.761Z,8.78
2022-12-25T18:17:51.607Z,8.79
2022-12-25T18:18:52.914Z,8.78
2022-12-25T18:19:52.237Z,8.81
2022-12-25T18:20:51.575Z,8.78
2022-12-25T18:21:51.595Z,8.79
2022-12-25T18:22:51.709Z,8.76
2022-12-25T18:23:51.616Z,8.81
2022-12-25T18:24:51.531Z,8.81
2022-12-25T18:25:51.777Z,8.79
2022-12-25T18:26:51.566Z,8.81
2022-12-25T18:27:51.486Z,8.81
2022-12-25T18:28:51.479Z,8.83
2022-12-25T18:29:51.494Z,8.81
2022-12-25T18:30:51.462Z,8.84
2022-12-25T18:31:51.588Z,8.83
2022-12-25T18:32:51.466Z,8.83
2022-12-25T18:33:51.460Z,8.87
2022-12-25T18:34:51.492Z,8.86
2022-12-25T18:35:51.419Z,8.83
2022-12-25T18:36:51.431Z,8.88
2022-12-25T18:37:51.406Z,8.87
2022-12-25T18:38:51.397Z,8.88
2022-12-25T18:39:51.376Z,8.91
2022-12-25T18:40:51.357Z,8.91
2022-12-25T18:41:51.346Z,8.93
2022-12-25T18:42:52.913Z,8.93
2022-12-25T18:43:55.229Z,8.90
2022-12-25T18:44:51.342Z,8.90
2022-12-25T18:45:51.400Z,8.91
2022-12-25T18:46:51.282Z,8.93
2022-12-25T18:47:51.362Z,8.90
2022-12-25T18:48:51.265Z,8.90
2022-12-25T18:49:51.262Z,8.88
2022-12-25T18:50:51.264Z,8.93
2022-12-25T18:51:52.257Z,8.93
2022-12-25T18:52:52.046Z,8.96
2022-12-25T18:53:51.416Z,8.96
2022-12-25T18:54:51.214Z,8.99
2022-12-25T18:55:51.212Z,8.97
2022-12-25T18:56:53.354Z,8.99
2022-12-25T18:57:51.257Z,8.99
2022-12-25T18:58:51.153Z,8.97
2022-12-25T18:59:51.331Z,8.97
2022-12-25T19:00:51.189Z,8.99
2022-12-25T19:01:51.377Z,9.04
2022-12-25T19:02:51.387Z,9.04
2022-12-25T19:03:51.134Z,9.02
2022-12-25T19:04:51.113Z,9.01
2022-12-25T19:05:51.246Z,8.99
2022-12-25T19:06:51.109Z,9.01
2022-12-25T19:07:51.107Z,9.02
2022-12-25T19:08:51.181Z,9.04
2022-12-25T19:09:51.236Z,9.09
2022-12-25T19:10:51.132Z,9.04
2022-12-25T19:11:51.038Z,9.06
2022-12-25T19:12:51.060Z,9.06
2022-12-25T19:13:51.019Z,9.09
2022-12-25T19:14:51.839Z,9.05
2022-12-25T19:15:51.021Z,9.05
2022-12-25T19:16:51.139Z,9.05
2022-12-25T19:17:50.968Z,9.04
2022-12-25T19:18:51.062Z,9.13
2022-12-25T19:19:50.979Z,9.09
2022-12-25T19:20:51.010Z,9.15
2022-12-25T19:21:51.060Z,9.12
2022-12-25T19:22:50.937Z,9.13
2022-12-25T19:23:50.930Z,9.13
2022-12-25T19:24:50.918Z,9.12
2022-12-25T19:25:50.998Z,9.12
2022-12-25T19:26:50.926Z,9.16
2022-12-25T19:27:50.879Z,9.12
2022-12-25T19:28:50.973Z,9.13
2022-12-25T19:29:50.866Z,9.15
2022-12-25T19:30:50.839Z,9.12
2022-12-25T19:31:50.910Z,9.16
2022-12-25T19:32:50.881Z,9.20
2022-12-25T19:33:50.810Z,9.20
2022-12-25T19:34:50.839Z,9.18
2022-12-25T19:35:50.777Z,9.21
2022-12-25T19:36:50.819Z,9.23
2022-12-25T19:37:50.805Z,9.23
2022-12-25T19:38:50.737Z,9.27
2022-12-25T19:39:50.842Z,9.20
2022-12-25T19:40:51.229Z,9.21
2022-12-25T19:41:50.765Z,9.25
2022-12-25T19:42:50.663Z,9.28
2022-12-25T19:43:50.889Z,9.32
2022-12-25T19:44:50.692Z,9.39
2022-12-25T19:45:50.779Z,9.42
2022-12-25T19:46:50.704Z,9.45
2022-12-25T19:47:50.673Z,9.50
2022-12-25T19:48:50.656Z,9.49
2022-12-25T19:49:53.181Z,9.52
2022-12-25T19:50:50.608Z,9.56
2022-12-25T19:51:50.615Z,9.57
2022-12-25T19:52:50.665Z,9.58
2022-12-25T19:53:50.657Z,9.61
2022-12-25T19:54:50.592Z,9.64
2022-12-25T19:55:50.575Z,9.60
2022-12-25T19:56:50.570Z,9.64
2022-12-25T19:57:50.634Z,9.67
2022-12-25T19:58:50.554Z,9.64
2022-12-25T19:59:50.550Z,9.67
2022-12-25T20:00:50.526Z,9.67
2022-12-25T20:01:50.700Z,9.70
2022-12-25T20:02:50.624Z,9.68
2022-12-25T20:03:50.454Z,9.71
2022-12-25T20:04:50.438Z,9.71
2022-12-25T20:05:50.459Z,9.73
2022-12-25T20:06:50.480Z,9.75
2022-12-25T20:07:50.449Z,9.76
2022-12-25T20:08:50.435Z,9.75
2022-12-25T20:09:50.455Z,9.71
2022-12-25T20:10:50.468Z,9.73
2022-12-25T20:11:50.459Z,9.76
2022-12-25T20:12:50.431Z,9.76
2022-12-25T20:13:50.377Z,9.78
2022-12-25T20:15:01.516Z,9.79
2022-12-25T20:15:50.412Z,9.79
2022-12-25T20:16:50.512Z,9.78
2022-12-25T20:17:51.392Z,9.79
2022-12-25T20:18:51.182Z,9.78
2022-12-25T20:19:50.336Z,9.78
2022-12-25T20:20:50.432Z,9.81
2022-12-25T20:21:50.281Z,9.79
2022-12-25T20:22:51.352Z,9.82
2022-12-25T20:23:51.680Z,9.79
2022-12-25T20:24:50.507Z,9.78
2022-12-25T20:25:50.782Z,9.76
2022-12-25T20:26:58.829Z,9.78
2022-12-25T20:27:51.446Z,9.76
2022-12-25T20:28:50.237Z,9.82
2022-12-25T20:29:50.216Z,9.82
2022-12-25T20:30:50.222Z,9.82
2022-12-25T20:31:50.381Z,9.82
2022-12-25T20:32:50.842Z,9.82
2022-12-25T20:33:50.177Z,9.83
2022-12-25T20:34:50.179Z,9.83
2022-12-25T20:35:50.136Z,9.82
2022-12-25T20:36:50.156Z,9.83
2022-12-25T20:37:50.130Z,9.82
2022-12-25T20:38:50.137Z,9.82
2022-12-25T20:39:50.099Z,9.81
2022-12-25T20:41:25.183Z,9.81
2022-12-25T20:41:50.107Z,9.81
2022-12-25T20:42:50.123Z,9.82
2022-12-25T20:43:50.060Z,9.78
2022-12-25T20:44:50.080Z,9.81
2022-12-25T20:45:50.147Z,9.82
2022-12-25T20:46:50.048Z,9.82
2022-12-25T20:47:50.009Z,9.81
2022-12-25T20:48:50.039Z,9.83
2022-12-25T20:49:49.994Z,9.85
2022-12-25T20:50:50.031Z,9.85
2022-12-25T20:51:49.965Z,9.79
2022-12-25T20:52:50.099Z,9.81
2022-12-25T20:53:49.952Z,9.81
2022-12-25T20:54:49.951Z,9.82
2022-12-25T20:55:49.961Z,9.81
2022-12-25T20:56:49.959Z,9.76
2022-12-25T20:57:50.052Z,9.78
2022-12-25T20:58:50.036Z,9.78
2022-12-25T20:59:49.918Z,9.76
2022-12-25T21:00:50.076Z,9.75
2022-12-25T21:04:23.176Z,9.86
2022-12-25T21:05:24.390Z,9.83
2022-12-25T21:09:46.473Z,9.85
2022-12-25T21:10:47.837Z,9.81
2022-12-25T21:14:22.266Z,9.76
2022-12-25T21:15:23.329Z,9.78
2022-12-25T21:16:23.161Z,9.76
2022-12-25T21:17:23.189Z,9.78
2022-12-25T21:18:23.101Z,9.75
2022-12-25T21:19:23.123Z,9.78
2022-12-25T21:20:23.085Z,9.73
2022-12-25T21:21:23.226Z,9.76
2022-12-25T21:22:23.063Z,9.73
2022-12-25T21:23:23.609Z,9.75
2022-12-25T21:24:23.042Z,9.70
2022-12-25T21:25:23.129Z,9.71
2022-12-25T21:26:23.013Z,9.71
2022-12-25T21:27:24.059Z,9.70
2022-12-25T21:28:23.195Z,9.73
2022-12-25T21:29:23.193Z,9.73
2022-12-25T21:30:22.955Z,9.71
2022-12-25T21:31:23.073Z,9.71
2022-12-25T21:32:22.987Z,9.70
2022-12-25T21:33:23.032Z,9.70
2022-12-25T21:34:22.936Z,9.71
2022-12-25T21:35:22.969Z,9.71
2022-12-25T21:36:22.914Z,9.68
2022-12-25T21:37:25.351Z,9.68
2022-12-25T21:39:46.246Z,9.70
2022-12-25T21:40:47.204Z,9.68
2022-12-25T21:41:56.108Z,9.70
2022-12-25T21:42:47.017Z,9.68
2022-12-25T21:43:47.123Z,9.71
2022-12-25T21:44:47.179Z,9.68
2022-12-25T21:48:43.804Z,9.68
2022-12-25T21:49:44.746Z,9.66
2022-12-25T21:50:44.752Z,9.67
2022-12-25T21:51:45.124Z,9.67
2022-12-25T21:54:41.244Z,9.67
2022-12-25T21:55:42.267Z,9.66
2022-12-25T21:56:44.929Z,9.66
2022-12-25T21:57:42.203Z,9.64
2022-12-25T21:58:42.147Z,9.67
2022-12-25T21:59:42.143Z,9.70
2022-12-25T22:00:42.437Z,9.64
2022-12-25T22:01:42.670Z,9.64
2022-12-25T22:02:42.290Z,9.64
2022-12-25T22:07:25.463Z,9.63
2022-12-25T22:08:26.910Z,9.64
2022-12-25T22:11:05.249Z,9.63
2022-12-25T22:12:06.179Z,9.60
2022-12-25T22:13:06.595Z,9.63
2022-12-25T22:14:06.121Z,9.63
2022-12-25T22:15:07.131Z,9.64
2022-12-25T22:16:06.168Z,9.63
2022-12-25T22:17:06.078Z,9.63
2022-12-25T22:19:28.675Z,9.64
2022-12-25T22:20:29.712Z,9.61
2022-12-25T22:21:29.632Z,9.63
2022-12-25T22:22:29.576Z,9.63
2022-12-25T22:23:29.527Z,9.64
2022-12-25T22:24:29.917Z,9.66
2022-12-25T22:25:29.634Z,9.63
2022-12-25T22:26:29.681Z,9.64
2022-12-25T22:27:29.525Z,9.61
2022-12-25T22:28:39.584Z,9.61
2022-12-25T22:29:29.759Z,9.63
2022-12-25T22:30:29.788Z,9.60
2022-12-25T22:31:29.511Z,9.61
2022-12-25T22:32:29.571Z,9.58